Time;durP1;ratioP1;P1;durP2;ratioP2;P2;SDS_P1;SDS_P2;PMS_P1;PMS_P2;Temp;Humidity;BMP_temperature;BMP_pressure;BME280_temperature;BME280_humidity;BME280_pressure;Samples;Min_cycle;Max_cycle;Signal;HPM_P1;HPM_P2
2023/07/23 00:00:38;;;;;;;2.42;1.80;;;26.70;37.20;;;;;;5147681;27;45490;-71
2023/07/23 00:03:05;;;;;;;2.38;1.70;;;26.70;37.30;;;;;;5146935;27;45459;-70
2023/07/23 00:05:32;;;;;;;2.03;1.83;;;26.70;37.40;;;;;;5134157;27;45444;-71
2023/07/23 00:07:59;;;;;;;1.73;1.52;;;26.60;37.40;;;;;;5142085;27;45263;-69
2023/07/23 00:10:26;;;;;;;3.25;1.70;;;26.60;37.40;;;;;;5147635;27;45322;-70
2023/07/23 00:12:54;;;;;;;2.38;1.38;;;26.60;37.50;;;;;;5147831;27;45334;-70
2023/07/23 00:15:21;;;;;;;1.67;1.58;;;26.60;37.50;;;;;;5151349;27;45426;-70
2023/07/23 00:17:48;;;;;;;1.75;1.48;;;26.60;37.50;;;;;;5131459;27;46681;-71
2023/07/23 00:20:16;;;;;;;2.42;1.30;;;26.50;37.50;;;;;;5129960;27;45329;-72
2023/07/23 00:22:42;;;;;;;2.00;1.38;;;26.50;37.50;;;;;;5130130;27;45315;-71
2023/07/23 00:25:10;;;;;;;1.42;1.30;;;26.50;37.60;;;;;;5130390;27;45369;-71
2023/07/23 00:27:37;;;;;;;2.97;1.83;;;26.50;37.60;;;;;;5143582;27;47290;-71
2023/07/23 00:30:06;;;;;;;2.70;1.50;;;26.50;37.70;;;;;;5150932;27;45280;-70
2023/07/23 00:32:33;;;;;;;1.90;1.45;;;26.40;37.70;;;;;;5135943;27;45323;-72
2023/07/23 00:35:00;;;;;;;2.33;1.60;;;26.40;37.70;;;;;;5127515;27;45379;-71
2023/07/23 00:37:27;;;;;;;2.92;1.23;;;26.40;37.70;;;;;;5139165;27;45365;-71
2023/07/23 00:39:55;;;;;;;3.08;1.60;;;26.40;38.30;;;;;;5150789;27;45322;-71
2023/07/23 00:42:21;;;;;;;1.63;1.52;;;26.40;37.70;;;;;;5140191;27;45342;-71
2023/07/23 00:44:48;;;;;;;2.35;1.73;;;26.40;37.90;;;;;;5134580;27;45310;-71
2023/07/23 00:47:17;;;;;;;1.98;1.75;;;26.40;37.90;;;;;;5136709;27;46657;-71
2023/07/23 00:49:44;;;;;;;3.22;1.48;;;26.30;38.50;;;;;;5145534;27;45363;-71
2023/07/23 00:52:11;;;;;;;2.92;1.65;;;26.30;37.90;;;;;;5149692;27;45381;-71
2023/07/23 00:54:37;;;;;;;2.35;1.55;;;26.30;37.90;;;;;;5150501;27;45309;-71
2023/07/23 00:57:05;;;;;;;2.30;1.60;;;26.30;38.00;;;;;;5141596;27;46153;-70
2023/07/23 00:59:32;;;;;;;1.52;1.42;;;26.30;38.00;;;;;;5130796;27;45482;-71
2023/07/23 01:01:59;;;;;;;2.13;1.38;;;26.30;38.00;;;;;;5129490;27;45387;-71
2023/07/23 01:04:27;;;;;;;1.90;1.50;;;26.20;38.60;;;;;;5129918;27;45269;-71
2023/07/23 01:06:54;;;;;;;1.20;1.10;;;26.20;38.60;;;;;;5138946;27;46355;-71
2023/07/23 01:09:21;;;;;;;1.42;1.33;;;26.20;38.10;;;;;;5135479;27;45473;-72
2023/07/23 01:11:48;;;;;;;1.90;1.40;;;26.20;38.10;;;;;;5129370;27;45424;-70
2023/07/23 01:14:15;;;;;;;2.15;1.45;;;26.20;38.20;;;;;;5129391;27;45299;-71
2023/07/23 01:16:42;;;;;;;2.92;1.58;;;26.10;38.10;;;;;;5140203;27;45540;-71
2023/07/23 01:19:09;;;;;;;1.40;1.30;;;26.10;38.20;;;;;;5150422;27;47376;-71
2023/07/23 01:21:37;;;;;;;1.60;1.50;;;26.10;38.20;;;;;;5135194;27;45362;-71
2023/07/23 01:24:06;;;;;;;2.50;1.20;;;26.10;38.20;;;;;;5129345;27;45456;-71
2023/07/23 01:26:33;;;;;;;3.97;1.60;;;26.10;38.30;;;;;;5128967;27;45409;-71
2023/07/23 01:29:00;;;;;;;1.63;1.45;;;26.00;38.30;;;;;;5129232;27;45506;-71
2023/07/23 01:31:27;;;;;;;1.60;1.50;;;26.00;38.40;;;;;;5129230;27;45449;-72
2023/07/23 01:33:54;;;;;;;1.52;1.35;;;26.00;38.40;;;;;;5129153;27;45430;-71
2023/07/23 01:36:20;;;;;;;1.35;1.25;;;26.00;38.50;;;;;;5130851;27;45452;-70
2023/07/23 01:38:48;;;;;;;2.35;1.50;;;26.00;38.50;;;;;;5135258;27;45270;-71
2023/07/23 01:41:16;;;;;;;2.10;1.60;;;26.00;38.60;;;;;;5148794;27;45425;-71
2023/07/23 01:43:43;;;;;;;1.58;1.38;;;26.00;38.60;;;;;;5149592;27;45491;-71
2023/07/23 01:46:09;;;;;;;1.48;1.27;;;26.00;38.60;;;;;;5149687;27;46353;-71
2023/07/23 01:48:36;;;;;;;2.10;1.50;;;25.90;38.60;;;;;;5148366;27;45306;-70
2023/07/23 01:51:03;;;;;;;1.50;1.40;;;25.90;38.60;;;;;;5140985;27;45508;-71
2023/07/23 01:53:30;;;;;;;2.50;1.52;;;25.90;38.70;;;;;;5146817;27;45414;-71
2023/07/23 01:55:58;;;;;;;1.50;1.35;;;25.90;38.80;;;;;;5149371;27;46681;-71
2023/07/23 01:58:26;;;;;;;2.20;1.50;;;25.90;38.80;;;;;;5133436;27;45372;-70
2023/07/23 02:00:58;;;;;;;1.77;1.60;;;25.90;38.80;;;;;;5149839;27;45326;-71
2023/07/23 02:03:25;;;;;;;2.00;1.90;;;25.80;38.70;;;;;;5149677;27;45320;-71
2023/07/23 02:05:59;;;;;;;1.45;1.35;;;25.80;38.70;;;;;;5149263;27;46311;-70
2023/07/23 02:08:26;;;;;;;2.17;1.58;;;25.80;38.70;;;;;;5149125;27;45463;-70
2023/07/23 02:10:58;;;;;;;2.33;1.48;;;25.90;38.80;;;;;;5149232;27;45295;-70
2023/07/23 02:13:26;;;;;;;1.63;1.40;;;25.90;38.70;;;;;;5149611;27;45583;-70
2023/07/23 02:15:53;;;;;;;1.98;1.52;;;25.80;38.60;;;;;;5148903;27;45264;-71
2023/07/23 02:18:20;;;;;;;1.95;1.40;;;25.90;38.60;;;;;;5149031;27;45419;-70
2023/07/23 02:20:47;;;;;;;2.97;1.65;;;25.80;38.60;;;;;;5149193;27;45396;-70
2023/07/23 02:23:15;;;;;;;1.50;1.40;;;25.90;38.60;;;;;;5149209;27;45385;-70
2023/07/23 02:25:42;;;;;;;1.60;1.50;;;25.80;38.50;;;;;;5148774;27;46441;-70
2023/07/23 02:28:09;;;;;;;1.85;1.40;;;25.80;38.50;;;;;;5148126;27;45339;-70
2023/07/23 02:30:37;;;;;;;2.22;1.40;;;25.80;38.60;;;;;;5148958;27;45336;-70
2023/07/23 02:33:04;;;;;;;2.35;1.30;;;25.80;39.10;;;;;;5149607;27;45407;-70
2023/07/23 02:35:31;;;;;;;3.00;1.45;;;25.80;38.50;;;;;;5148611;27;45307;-70
2023/07/23 02:37:58;;;;;;;3.10;1.40;;;25.80;38.50;;;;;;5147363;27;45270;-70
2023/07/23 02:40:24;;;;;;;2.22;1.35;;;25.80;38.50;;;;;;5148828;27;45314;-70
2023/07/23 02:42:51;;;;;;;1.35;1.25;;;25.80;38.50;;;;;;5148930;27;45399;-70
2023/07/23 02:45:18;;;;;;;1.48;1.30;;;25.70;38.50;;;;;;5148289;27;45448;-70
2023/07/23 02:47:46;;;;;;;1.85;1.60;;;25.70;38.50;;;;;;5148729;27;45393;-68
2023/07/23 02:50:13;;;;;;;1.30;1.20;;;25.70;38.50;;;;;;5148736;27;45264;-71
2023/07/23 02:52:40;;;;;;;1.95;1.20;;;25.70;38.50;;;;;;5148387;27;45542;-69
2023/07/23 02:55:07;;;;;;;3.15;1.35;;;25.70;38.50;;;;;;5148149;27;45371;-69
2023/07/23 02:57:34;;;;;;;2.20;1.38;;;25.70;38.50;;;;;;5148504;27;45238;-69
2023/07/23 03:00:02;;;;;;;1.88;1.35;;;25.70;38.50;;;;;;5148598;27;45368;-69
2023/07/23 03:02:30;;;;;;;2.60;1.63;;;25.70;38.50;;;;;;5148626;27;45490;-69
2023/07/23 03:04:58;;;;;;;1.50;1.40;;;25.70;38.50;;;;;;5148046;27;45373;-70
2023/07/23 03:07:25;;;;;;;1.23;1.13;;;25.70;38.60;;;;;;5148336;27;45350;-71
2023/07/23 03:09:52;;;;;;;2.00;1.50;;;25.60;38.50;;;;;;5148562;27;45371;-70
2023/07/23 03:12:18;;;;;;;1.38;1.27;;;25.60;38.50;;;;;;5147910;27;45411;-68
2023/07/23 03:14:45;;;;;;;1.52;1.40;;;25.60;38.60;;;;;;5147678;27;45575;-70
2023/07/23 03:17:12;;;;;;;1.35;1.25;;;25.60;39.20;;;;;;5148137;27;45351;-71
2023/07/23 03:19:39;;;;;;;1.40;1.30;;;25.60;38.60;;;;;;5148410;27;45543;-70
2023/07/23 03:22:07;;;;;;;1.95;1.30;;;25.60;38.60;;;;;;5148679;27;45187;-71
2023/07/23 03:24:34;;;;;;;1.67;1.38;;;25.60;38.60;;;;;;5148157;27;47421;-71
2023/07/23 03:27:01;;;;;;;2.20;1.58;;;25.60;38.60;;;;;;5148117;27;45735;-71
2023/07/23 03:29:28;;;;;;;1.38;1.30;;;25.50;38.50;;;;;;5148523;27;45359;-70
2023/07/23 03:31:55;;;;;;;2.00;1.30;;;25.50;38.50;;;;;;5148284;27;45488;-71
2023/07/23 03:34:21;;;;;;;1.40;1.30;;;25.50;38.50;;;;;;5147917;27;45320;-71
2023/07/23 03:36:48;;;;;;;1.13;1.10;;;25.50;38.50;;;;;;5148347;27;45329;-71
2023/07/23 03:39:18;;;;;;;1.50;1.40;;;25.50;38.50;;;;;;5148232;27;45225;-70
2023/07/23 03:41:45;;;;;;;1.70;1.30;;;25.50;38.60;;;;;;5148138;27;45308;-70
2023/07/23 03:44:12;;;;;;;1.33;1.23;;;25.50;38.50;;;;;;5147853;27;45356;-71
2023/07/23 03:46:43;;;;;;;1.40;1.30;;;25.50;38.60;;;;;;5147967;27;45311;-71
2023/07/23 03:49:10;;;;;;;1.60;1.50;;;25.50;38.60;;;;;;5150522;27;45369;-70
2023/07/23 03:51:37;;;;;;;1.45;1.35;;;25.50;38.60;;;;;;5151754;27;45287;-71
2023/07/23 03:54:04;;;;;;;1.35;1.20;;;25.50;38.60;;;;;;5150896;27;47520;-70
2023/07/23 03:56:32;;;;;;;2.20;1.40;;;25.50;38.60;;;;;;5151535;27;45411;-70
2023/07/23 03:58:59;;;;;;;1.42;1.23;;;25.50;38.50;;;;;;5150816;27;45338;-69
2023/07/23 04:01:26;;;;;;;1.40;1.30;;;25.40;38.50;;;;;;5151328;27;45295;-69
2023/07/23 04:03:53;;;;;;;1.40;1.30;;;25.40;38.50;;;;;;5151068;27;47620;-70
2023/07/23 04:06:19;;;;;;;1.52;1.42;;;25.40;38.50;;;;;;5151207;27;46132;-70
2023/07/23 04:08:46;;;;;;;1.27;1.20;;;25.40;38.50;;;;;;5151333;27;45485;-70
2023/07/23 04:11:13;;;;;;;1.20;1.17;;;25.40;38.50;;;;;;5151286;27;45319;-70
2023/07/23 04:13:41;;;;;;;1.30;1.20;;;25.40;38.50;;;;;;5151098;27;45428;-70
2023/07/23 04:16:09;;;;;;;1.30;1.20;;;25.40;38.50;;;;;;5151081;27;45329;-70
2023/07/23 04:18:45;;;;;;;1.42;1.30;;;25.40;38.50;;;;;;5151206;27;45408;-69
2023/07/23 04:21:12;;;;;;;1.63;1.15;;;25.40;38.50;;;;;;5151300;27;45468;-70
2023/07/23 04:23:39;;;;;;;1.40;1.30;;;25.40;38.50;;;;;;5150877;27;46412;-70
2023/07/23 04:26:06;;;;;;;1.30;1.20;;;25.40;38.50;;;;;;5151027;27;45376;-69
2023/07/23 04:28:32;;;;;;;1.63;1.38;;;25.40;38.50;;;;;;5151192;27;45353;-69
2023/07/23 04:31:01;;;;;;;1.15;1.10;;;25.40;38.50;;;;;;5151248;27;45338;-70
2023/07/23 04:33:28;;;;;;;1.50;1.40;;;25.40;38.50;;;;;;5150701;27;45341;-70
2023/07/23 04:35:54;;;;;;;2.03;1.23;;;25.40;38.50;;;;;;5148168;27;45396;-70
2023/07/23 04:38:21;;;;;;;1.25;1.15;;;25.40;38.40;;;;;;5151155;27;45292;-71
2023/07/23 04:40:48;;;;;;;1.65;1.27;;;25.40;38.40;;;;;;5151021;27;45256;-70
2023/07/23 04:43:15;;;;;;;1.42;1.30;;;25.40;38.40;;;;;;5150322;27;46756;-70
2023/07/23 04:45:42;;;;;;;1.95;1.00;;;25.40;38.40;;;;;;5149869;27;45509;-69
2023/07/23 04:48:12;;;;;;;1.48;1.38;;;25.40;38.40;;;;;;5150397;27;45362;-70
2023/07/23 04:50:39;;;;;;;1.25;1.15;;;25.40;38.40;;;;;;5151027;27;45326;-69
2023/07/23 04:53:06;;;;;;;1.48;1.30;;;25.40;38.40;;;;;;5149770;27;45526;-69
2023/07/23 04:55:33;;;;;;;1.20;1.10;;;25.40;38.40;;;;;;5150587;27;45371;-70
2023/07/23 04:58:00;;;;;;;1.15;1.00;;;25.40;38.40;;;;;;5150704;27;45381;-70
2023/07/23 05:00:27;;;;;;;1.58;1.30;;;25.40;38.40;;;;;;5149585;27;45361;-70
2023/07/23 05:02:54;;;;;;;1.35;1.17;;;25.40;38.40;;;;;;5150317;27;47512;-70
2023/07/23 05:05:22;;;;;;;1.20;1.10;;;25.40;38.30;;;;;;5150346;27;45311;-70
2023/07/23 05:07:49;;;;;;;1.00;1.00;;;25.40;38.30;;;;;;5150624;27;45333;-69
2023/07/23 05:10:16;;;;;;;1.30;1.20;;;25.40;38.30;;;;;;5150339;27;45406;-70
2023/07/23 05:12:43;;;;;;;1.30;1.20;;;25.40;38.30;;;;;;5150206;27;46510;-70
2023/07/23 05:15:10;;;;;;;1.15;1.05;;;25.40;38.30;;;;;;5149968;27;45268;-70
2023/07/23 05:17:37;;;;;;;1.13;1.10;;;25.40;38.30;;;;;;5150531;27;45435;-69
2023/07/23 05:20:06;;;;;;;1.40;1.30;;;25.40;38.30;;;;;;5150564;27;45425;-70
2023/07/23 05:22:38;;;;;;;1.30;1.20;;;25.40;38.30;;;;;;5149934;27;46531;-70
2023/07/23 05:25:05;;;;;;;2.58;1.40;;;25.40;38.30;;;;;;5149820;27;45370;-70
2023/07/23 05:27:32;;;;;;;1.20;1.10;;;25.40;38.30;;;;;;5150068;27;45312;-70
2023/07/23 05:29:58;;;;;;;1.33;1.23;;;25.40;38.30;;;;;;5150186;27;45247;-70
2023/07/23 05:32:25;;;;;;;1.52;1.30;;;25.40;38.30;;;;;;5149381;27;45318;-68
2023/07/23 05:34:53;;;;;;;1.30;1.20;;;25.40;38.30;;;;;;5148916;27;45453;-70
2023/07/23 05:37:20;;;;;;;1.05;1.05;;;25.40;38.30;;;;;;5149737;27;45394;-70
2023/07/23 05:39:49;;;;;;;1.08;0.95;;;25.40;38.30;;;;;;5150218;27;45388;-69
2023/07/23 05:42:15;;;;;;;1.52;1.20;;;25.40;38.30;;;;;;5149503;27;45435;-69
2023/07/23 05:44:42;;;;;;;1.50;1.30;;;25.40;38.30;;;;;;5149265;27;45396;-70
2023/07/23 05:47:09;;;;;;;0.95;0.95;;;25.40;38.30;;;;;;5149721;27;45378;-70
2023/07/23 05:49:36;;;;;;;1.30;1.20;;;25.40;38.20;;;;;;5149757;27;45426;-69
2023/07/23 05:52:03;;;;;;;1.10;1.00;;;25.40;38.20;;;;;;5149168;27;46380;-69
2023/07/23 05:54:30;;;;;;;1.25;1.15;;;25.40;38.20;;;;;;5149398;27;45314;-70
2023/07/23 05:56:58;;;;;;;1.30;1.15;;;25.40;38.20;;;;;;5149434;27;45281;-70
2023/07/23 05:59:25;;;;;;;1.30;1.00;;;25.50;38.30;;;;;;5149591;27;45423;-69
2023/07/23 06:01:52;;;;;;;1.30;1.00;;;25.50;38.30;;;;;;5149740;27;45457;-69
2023/07/23 06:04:20;;;;;;;1.15;1.08;;;25.40;38.20;;;;;;5149284;27;45398;-70
2023/07/23 06:06:47;;;;;;;1.27;1.17;;;25.50;38.30;;;;;;5149407;27;45405;-69
2023/07/23 06:09:14;;;;;;;1.42;1.33;;;25.50;38.30;;;;;;5149461;27;45634;-69
2023/07/23 06:11:41;;;;;;;0.90;0.90;;;25.50;38.30;;;;;;5148653;27;46689;-70
2023/07/23 06:14:09;;;;;;;1.10;1.10;;;25.50;38.30;;;;;;5149179;27;45364;-70
2023/07/23 06:16:36;;;;;;;1.20;1.10;;;25.50;38.30;;;;;;5149490;27;45293;-70
2023/07/23 06:19:03;;;;;;;1.10;1.10;;;25.50;38.30;;;;;;5148689;27;45399;-69
2023/07/23 06:21:30;;;;;;;1.20;0.90;;;25.50;38.30;;;;;;5149050;27;45408;-70
2023/07/23 06:23:57;;;;;;;1.30;1.20;;;25.50;38.20;;;;;;5149048;27;45506;-69
2023/07/23 06:26:24;;;;;;;1.05;1.05;;;25.50;38.20;;;;;;5149223;27;45307;-70
2023/07/23 06:28:50;;;;;;;1.88;1.13;;;25.50;38.20;;;;;;5149269;27;45325;-69
2023/07/23 06:31:19;;;;;;;0.90;0.90;;;25.50;38.20;;;;;;5148955;27;47345;-69
2023/07/23 06:33:46;;;;;;;1.90;1.40;;;25.60;38.10;;;;;;5148706;27;45437;-70
2023/07/23 06:36:13;;;;;;;1.20;1.10;;;25.60;38.20;;;;;;5148812;27;45399;-70
2023/07/23 06:38:40;;;;;;;1.42;1.25;;;25.60;38.10;;;;;;5149225;27;45404;-70
2023/07/23 06:41:07;;;;;;;2.03;1.30;;;25.60;38.10;;;;;;5148814;27;45640;-70
2023/07/23 06:43:34;;;;;;;1.30;1.13;;;25.60;38.10;;;;;;5148585;27;45369;-69
2023/07/23 06:46:00;;;;;;;1.20;1.10;;;25.60;38.10;;;;;;5148841;27;45277;-70
2023/07/23 06:48:28;;;;;;;1.10;1.10;;;25.60;38.10;;;;;;5148984;27;45276;-70
2023/07/23 06:50:56;;;;;;;1.30;1.20;;;25.60;38.10;;;;;;5148702;27;45316;-70
2023/07/23 06:53:23;;;;;;;1.30;1.20;;;25.70;38.10;;;;;;5148000;27;45319;-70
2023/07/23 06:55:59;;;;;;;1.33;1.23;;;25.70;38.10;;;;;;5148698;27;45363;-70
2023/07/23 06:58:27;;;;;;;1.40;1.30;;;25.70;38.10;;;;;;5148793;27;45351;-69
2023/07/23 07:00:54;;;;;;;1.67;1.23;;;25.70;38.00;;;;;;5148834;27;46997;-70
2023/07/23 07:03:21;;;;;;;1.00;0.90;;;25.80;38.00;;;;;;5148685;27;45254;-69
2023/07/23 07:05:49;;;;;;;1.23;1.13;;;25.80;38.00;;;;;;5147921;27;45394;-69
2023/07/23 07:08:16;;;;;;;1.17;1.08;;;25.80;38.00;;;;;;5147876;27;45425;-70
2023/07/23 07:10:42;;;;;;;1.10;1.10;;;25.80;37.90;;;;;;5148338;27;46349;-70
2023/07/23 07:13:09;;;;;;;1.25;1.15;;;25.90;38.00;;;;;;5148188;27;45276;-69
2023/07/23 07:15:36;;;;;;;1.27;0.98;;;25.90;38.00;;;;;;5148321;27;45252;-70
2023/07/23 07:18:04;;;;;;;1.02;1.00;;;25.80;37.90;;;;;;5148789;27;45405;-70
2023/07/23 07:20:30;;;;;;;1.08;1.00;;;25.90;38.00;;;;;;5147967;27;46686;-70
2023/07/23 07:22:59;;;;;;;1.33;1.23;;;25.90;38.00;;;;;;5149932;27;45294;-70
2023/07/23 07:25:25;;;;;;;1.27;1.00;;;25.90;38.00;;;;;;5155186;27;45275;-70
2023/07/23 07:27:52;;;;;;;2.35;1.20;;;25.90;37.90;;;;;;5155254;27;45457;-70
2023/07/23 07:30:19;;;;;;;1.50;1.20;;;25.90;37.90;;;;;;5154838;27;45448;-69
2023/07/23 07:32:46;;;;;;;1.08;1.08;;;26.00;37.90;;;;;;5154857;27;45386;-70
2023/07/23 07:35:13;;;;;;;1.30;1.20;;;26.00;37.90;;;;;;5155043;27;45110;-69
2023/07/23 07:37:40;;;;;;;1.58;1.30;;;26.00;37.90;;;;;;5155311;27;45248;-69
2023/07/23 07:40:12;;;;;;;2.10;1.00;;;26.00;37.90;;;;;;5154883;27;46747;-70
2023/07/23 07:42:39;;;;;;;1.30;1.20;;;26.10;37.90;;;;;;5154958;27;45273;-70
2023/07/23 07:45:07;;;;;;;1.17;1.00;;;26.10;37.80;;;;;;5155002;27;45375;-70
2023/07/23 07:47:34;;;;;;;1.42;1.23;;;26.10;37.80;;;;;;5155138;27;45415;-70
2023/07/23 07:50:03;;;;;;;1.65;1.13;;;26.20;37.80;;;;;;5154849;27;45429;-70
2023/07/23 07:52:29;;;;;;;1.20;1.10;;;26.20;38.40;;;;;;5153653;27;45242;-69
2023/07/23 07:54:59;;;;;;;1.20;1.10;;;26.20;37.80;;;;;;5154326;27;45254;-70
2023/07/23 07:57:27;;;;;;;1.05;1.02;;;26.20;37.60;;;;;;5154984;27;45489;-70
2023/07/23 07:59:55;;;;;;;1.27;1.10;;;26.30;37.60;;;;;;5154760;27;46497;-70
2023/07/23 08:02:22;;;;;;;1.35;1.15;;;26.30;37.60;;;;;;5154748;27;45153;-70
2023/07/23 08:04:50;;;;;;;1.30;1.20;;;26.30;37.60;;;;;;5155140;27;45367;-70
2023/07/23 08:07:19;;;;;;;1.40;1.02;;;26.30;37.60;;;;;;5154808;27;45364;-69
2023/07/23 08:09:46;;;;;;;1.42;1.33;;;26.40;37.70;;;;;;5154643;27;46816;-70
2023/07/23 08:12:13;;;;;;;1.30;1.20;;;26.40;37.70;;;;;;5154621;27;45381;-70
2023/07/23 08:14:41;;;;;;;1.15;1.05;;;26.40;37.70;;;;;;5154360;27;45361;-70
2023/07/23 08:17:09;;;;;;;1.23;1.17;;;26.40;37.70;;;;;;5154480;27;45247;-70
2023/07/23 08:19:36;;;;;;;1.23;1.13;;;26.50;37.70;;;;;;5154589;27;45275;-70
2023/07/23 08:22:04;;;;;;;1.15;1.15;;;26.50;37.70;;;;;;5155013;27;45460;-70
2023/07/23 08:24:31;;;;;;;1.05;1.05;;;26.50;37.70;;;;;;5155884;27;45355;-69
2023/07/23 08:26:59;;;;;;;1.27;1.15;;;26.50;37.70;;;;;;5160886;27;45591;-70
2023/07/23 08:29:26;;;;;;;1.40;1.30;;;26.50;37.80;;;;;;5158625;27;47573;-70
2023/07/23 08:31:54;;;;;;;1.27;1.17;;;26.50;37.70;;;;;;5158338;27;45527;-70
2023/07/23 08:34:22;;;;;;;1.13;1.02;;;26.60;37.80;;;;;;5152903;27;45373;-69
2023/07/23 08:36:49;;;;;;;1.40;1.30;;;26.60;37.80;;;;;;5150632;27;45434;-70
2023/07/23 08:39:17;;;;;;;1.42;1.20;;;26.60;37.70;;;;;;5150367;27;45257;-69
2023/07/23 08:41:51;;;;;;;1.27;1.10;;;26.70;37.80;;;;;;5150512;27;45429;-70
2023/07/23 08:44:50;;;;;;;1.30;1.20;;;26.70;37.70;;;;;;5150345;27;45182;-69
2023/07/23 08:47:18;;;;;;;0.98;0.98;;;26.70;37.70;;;;;;5115555;27;45433;-70
2023/07/23 08:49:45;;;;;;;0.95;0.95;;;26.80;37.80;;;;;;5150436;27;45537;-70
2023/07/23 08:52:12;;;;;;;1.00;1.00;;;26.80;37.70;;;;;;5150255;27;45320;-69
2023/07/23 08:54:40;;;;;;;1.70;1.20;;;26.80;37.70;;;;;;5150017;27;45279;-69
2023/07/23 08:57:07;;;;;;;1.33;1.23;;;26.80;37.70;;;;;;5150239;27;45430;-69
2023/07/23 08:59:34;;;;;;;1.45;1.35;;;26.90;37.70;;;;;;5150151;27;46405;-70
2023/07/23 09:02:02;;;;;;;1.30;1.20;;;26.90;37.80;;;;;;5150123;27;45273;-69
2023/07/23 09:04:30;;;;;;;1.30;1.20;;;26.90;37.70;;;;;;5150028;27;45449;-69
2023/07/23 09:06:58;;;;;;;1.30;1.20;;;27.00;37.70;;;;;;5150806;27;45430;-69
2023/07/23 09:09:25;;;;;;;1.45;1.10;;;27.00;37.80;;;;;;5149895;27;45275;-69
2023/07/23 09:11:52;;;;;;;1.20;1.10;;;27.00;37.80;;;;;;5149961;27;45397;-69
2023/07/23 09:14:18;;;;;;;1.02;1.02;;;27.00;37.80;;;;;;5150138;27;45396;-69
2023/07/23 09:16:47;;;;;;;1.23;1.10;;;27.00;37.80;;;;;;5150271;27;45426;-70
2023/07/23 09:19:14;;;;;;;1.40;1.20;;;27.00;37.80;;;;;;5149935;27;45298;-69
2023/07/23 09:21:43;;;;;;;1.33;1.23;;;27.00;37.80;;;;;;5149984;27;45358;-69
2023/07/23 09:24:12;;;;;;;1.10;1.00;;;27.10;37.80;;;;;;5149928;27;45336;-68
2023/07/23 09:26:39;;;;;;;1.38;1.27;;;27.10;37.80;;;;;;5150112;27;45380;-69
2023/07/23 09:29:08;;;;;;;1.80;1.20;;;27.10;37.80;;;;;;5147144;27;45395;-70
2023/07/23 09:31:35;;;;;;;1.17;1.10;;;27.10;37.80;;;;;;5150107;27;45351;-70
2023/07/23 09:34:02;;;;;;;1.35;1.23;;;27.10;37.80;;;;;;5149661;27;45328;-69
2023/07/23 09:36:29;;;;;;;1.27;1.17;;;27.20;37.80;;;;;;5150361;27;45330;-69
2023/07/23 09:38:59;;;;;;;1.58;1.48;;;27.20;37.80;;;;;;5149686;27;45289;-69
2023/07/23 09:41:30;;;;;;;1.00;1.00;;;27.20;37.80;;;;;;5149739;27;45390;-69
2023/07/23 09:44:01;;;;;;;1.25;1.15;;;27.20;37.90;;;;;;5149364;27;45417;-69
2023/07/23 09:46:28;;;;;;;1.27;1.15;;;27.20;37.90;;;;;;5148367;27;45453;-69
2023/07/23 09:48:55;;;;;;;1.27;1.10;;;27.20;37.90;;;;;;5149447;27;45352;-69
2023/07/23 09:51:21;;;;;;;1.17;1.08;;;27.20;37.90;;;;;;5149479;27;45591;-69
2023/07/23 09:53:48;;;;;;;1.45;1.25;;;27.20;37.90;;;;;;5148882;27;45322;-69
2023/07/23 09:56:17;;;;;;;1.00;1.00;;;27.20;37.90;;;;;;5149510;27;45398;-70
2023/07/23 09:58:46;;;;;;;1.20;1.10;;;27.20;37.90;;;;;;5149259;27;45303;-69
2023/07/23 10:01:13;;;;;;;1.35;1.25;;;27.30;38.10;;;;;;5148914;27;45568;-74
2023/07/23 10:03:40;;;;;;;9.25;1.55;;;27.30;38.10;;;;;;5149281;27;45410;-71
2023/07/23 10:06:10;;;;;;;12.10;1.33;;;27.30;40.00;;;;;;5146925;27;45332;-71
2023/07/23 10:08:38;;;;;;;7.60;1.40;;;27.30;42.00;;;;;;5149098;27;47543;-70
2023/07/23 10:11:05;;;;;;;3.30;1.70;;;27.30;43.00;;;;;;5149138;27;45413;-71
2023/07/23 10:13:34;;;;;;;4.43;1.58;;;27.40;43.70;;;;;;5149402;27;45313;-70
2023/07/23 10:16:00;;;;;;;5.47;1.80;;;27.40;43.80;;;;;;5149696;27;45234;-70
2023/07/23 10:18:28;;;;;;;4.32;1.80;;;27.50;45.00;;;;;;5149828;27;45367;-71
2023/07/23 10:20:55;;;;;;;1.83;1.55;;;27.60;44.80;;;;;;5149105;27;45407;-74
2023/07/23 10:23:22;;;;;;;1.52;1.30;;;27.60;42.20;;;;;;5148992;27;45429;-70
2023/07/23 10:25:49;;;;;;;1.42;1.33;;;27.70;43.60;;;;;;5149234;27;45375;-72
2023/07/23 10:28:22;;;;;;;2.78;1.50;;;27.80;43.20;;;;;;5148769;27;46423;-71
2023/07/23 10:31:05;;;;;;;1.85;1.33;;;27.80;43.50;;;;;;5148834;27;45368;-70
2023/07/23 10:33:33;;;;;;;3.85;1.33;;;27.90;42.40;;;;;;5148749;27;45369;-73
2023/07/23 10:36:02;;;;;;;1.63;1.45;;;28.00;41.20;;;;;;5149126;27;45323;-73
2023/07/23 10:38:30;;;;;;;4.00;2.00;;;28.10;40.80;;;;;;5148932;27;45415;-74
2023/07/23 10:40:56;;;;;;;1.83;1.52;;;28.10;42.50;;;;;;5147920;27;45389;-71
2023/07/23 10:43:23;;;;;;;3.88;1.83;;;28.20;42.30;;;;;;5148848;27;45407;-72
2023/07/23 10:46:01;;;;;;;3.50;1.60;;;28.30;42.00;;;;;;5148833;27;45421;-72
2023/07/23 10:48:41;;;;;;;2.85;1.40;;;28.30;40.90;;;;;;5148754;27;46630;-73
2023/07/23 10:51:09;;;;;;;2.17;1.77;;;28.40;40.80;;;;;;5148723;27;45307;-70
2023/07/23 10:53:39;;;;;;;2.15;1.50;;;28.40;42.10;;;;;;5148063;27;45299;-71
2023/07/23 10:56:20;;;;;;;2.63;1.48;;;28.40;42.40;;;;;;5148899;27;45310;-69
2023/07/23 10:58:47;;;;;;;2.50;1.48;;;28.40;41.10;;;;;;5147289;27;46464;-67
2023/07/23 11:01:16;;;;;;;3.58;1.80;;;28.50;40.30;;;;;;5147540;27;45308;-69
2023/07/23 11:03:44;;;;;;;1.38;1.27;;;28.50;39.50;;;;;;5148257;27;45411;-70
2023/07/23 11:06:28;;;;;;;1.73;1.40;;;28.60;39.30;;;;;;5148461;27;45616;-70
2023/07/23 11:08:56;;;;;;;1.75;1.40;;;28.60;39.10;;;;;;5145480;27;46447;-70
2023/07/23 11:11:29;;;;;;;2.45;1.60;;;28.70;39.10;;;;;;5148300;27;45284;-69
2023/07/23 11:13:56;;;;;;;3.28;1.50;;;28.70;39.10;;;;;;5148427;27;45421;-70
2023/07/23 11:16:24;;;;;;;1.77;1.65;;;28.70;38.90;;;;;;5148598;27;45400;-69
2023/07/23 11:18:51;;;;;;;3.25;1.70;;;28.80;39.20;;;;;;5148132;27;45373;-70
2023/07/23 11:21:18;;;;;;;3.78;1.48;;;28.80;39.10;;;;;;5147931;27;45434;-70
2023/07/23 11:23:45;;;;;;;2.30;1.70;;;28.80;38.90;;;;;;5148227;27;45233;-69
2023/07/23 11:26:12;;;;;;;1.60;1.50;;;28.90;39.00;;;;;;5147894;27;45429;-69
2023/07/23 11:28:39;;;;;;;1.77;1.48;;;28.90;38.90;;;;;;5147843;27;47339;-71
2023/07/23 11:31:05;;;;;;;1.67;1.40;;;28.90;38.70;;;;;;5148155;27;45339;-69
2023/07/23 11:33:37;;;;;;;2.08;1.48;;;28.90;38.70;;;;;;5147902;27;45403;-69
2023/07/23 11:36:04;;;;;;;1.85;1.60;;;28.90;38.70;;;;;;5147592;27;45256;-69
2023/07/23 11:38:32;;;;;;;1.48;1.38;;;29.00;38.60;;;;;;5147799;27;45440;-70
2023/07/23 11:41:00;;;;;;;1.70;1.60;;;29.00;38.40;;;;;;5147834;27;45450;-69
2023/07/23 11:43:26;;;;;;;1.70;1.60;;;29.00;38.30;;;;;;5148364;27;45264;-69
2023/07/23 11:45:53;;;;;;;3.25;1.65;;;29.10;38.40;;;;;;5147595;27;45313;-68
2023/07/23 11:48:21;;;;;;;1.63;1.52;;;29.10;38.30;;;;;;5147117;27;45339;-69
2023/07/23 11:50:49;;;;;;;1.70;1.60;;;29.00;38.30;;;;;;5147596;27;45375;-68
2023/07/23 11:53:30;;;;;;;1.70;1.55;;;29.00;38.30;;;;;;5145826;27;45398;-69
2023/07/23 11:56:06;;;;;;;1.50;1.40;;;29.00;38.30;;;;;;5127890;27;45406;-69
2023/07/23 11:58:34;;;;;;;1.60;1.50;;;29.10;38.30;;;;;;5126316;27;47333;-69
2023/07/23 12:01:01;;;;;;;2.38;1.60;;;29.10;38.20;;;;;;5126584;27;45335;-69
2023/07/23 12:03:28;;;;;;;2.20;1.60;;;29.00;39.10;;;;;;5127209;27;45341;-69
2023/07/23 12:05:56;;;;;;;1.75;1.50;;;29.00;38.40;;;;;;5145816;27;45320;-69
2023/07/23 12:08:23;;;;;;;2.08;1.40;;;29.00;37.90;;;;;;5129338;27;46710;-70
2023/07/23 12:10:49;;;;;;;1.90;1.38;;;29.00;38.10;;;;;;5146072;27;46124;-69
2023/07/23 12:13:16;;;;;;;3.35;1.50;;;29.00;38.20;;;;;;5130305;27;45319;-70
2023/07/23 12:15:49;;;;;;;2.08;1.55;;;29.00;38.40;;;;;;5143326;27;45552;-69
2023/07/23 12:18:16;;;;;;;1.50;1.40;;;29.00;38.70;;;;;;5146024;27;46651;-70
2023/07/23 12:20:43;;;;;;;1.50;1.40;;;29.00;39.20;;;;;;5150453;27;45468;-69
2023/07/23 12:23:12;;;;;;;3.53;1.55;;;29.00;39.00;;;;;;5146583;27;45439;-68
2023/07/23 12:25:39;;;;;;;3.38;1.70;;;29.10;39.50;;;;;;5145317;27;45417;-69
2023/07/23 12:28:07;;;;;;;2.75;1.85;;;29.00;39.20;;;;;;5148384;27;45320;-69
2023/07/23 12:30:34;;;;;;;3.13;1.73;;;29.00;38.90;;;;;;5149826;27;45427;-69
2023/07/23 12:33:01;;;;;;;3.15;1.92;;;29.00;39.00;;;;;;5150417;27;45439;-69
2023/07/23 12:35:27;;;;;;;2.28;1.60;;;29.10;39.00;;;;;;5150091;27;45417;-72
2023/07/23 12:37:54;;;;;;;1.85;1.75;;;29.10;39.00;;;;;;5147896;27;46735;-70
2023/07/23 12:40:22;;;;;;;2.72;1.70;;;29.10;38.30;;;;;;5149727;27;45494;-67
2023/07/23 12:42:49;;;;;;;2.75;1.60;;;29.20;38.80;;;;;;5149779;27;45330;-69
2023/07/23 12:45:16;;;;;;;5.18;2.13;;;29.20;38.70;;;;;;5150565;27;45444;-71
2023/07/23 12:47:43;;;;;;;2.45;1.40;;;29.30;38.50;;;;;;5148554;27;46410;-70
2023/07/23 12:50:10;;;;;;;2.20;1.80;;;29.30;38.50;;;;;;5150166;27;45373;-70